sensor_id;sensor_type;location;lat;lon;timestamp;pressure;altitude;pressure_sealevel;temperature;humidity
63347;BME280;49472;49.880;8.650;2022-10-16T00:01:18;99760.88;;;38.64;31.67
63347;BME280;49472;49.880;8.650;2022-10-16T00:03:45;99745.69;;;37.14;33.33
63347;BME280;49472;49.880;8.650;2022-10-16T00:06:12;99736.56;;;38.29;32.12
63347;BME280;49472;49.880;8.650;2022-10-16T00:08:38;99740.69;;;39.20;31.04
63347;BME280;49472;49.880;8.650;2022-10-16T00:11:07;99742.31;;;38.90;31.05
63347;BME280;49472;49.880;8.650;2022-10-16T00:13:33;99748.34;;;39.44;29.95
63347;BME280;49472;49.880;8.650;2022-10-16T00:16:00;99749.91;;;37.84;32.53
63347;BME280;49472;49.880;8.650;2022-10-16T00:18:26;99755.75;;;38.45;31.99
63347;BME280;49472;49.880;8.650;2022-10-16T00:20:52;99764.59;;;39.17;30.48
63347;BME280;49472;49.880;8.650;2022-10-16T00:23:18;99760.69;;;38.60;31.42
63347;BME280;49472;49.880;8.650;2022-10-16T00:25:43;99757.25;;;37.23;33.37
63347;BME280;49472;49.880;8.650;2022-10-16T00:28:08;99745.84;;;39.65;30.08
63347;BME280;49472;49.880;8.650;2022-10-16T00:30:37;99744.13;;;39.12;30.91
63347;BME280;49472;49.880;8.650;2022-10-16T00:33:03;99751.59;;;36.97;33.14
63347;BME280;49472;49.880;8.650;2022-10-16T00:35:28;99752.25;;;37.86;31.62
63347;BME280;49472;49.880;8.650;2022-10-16T00:37:54;99761.63;;;37.83;32.01
63347;BME280;49472;49.880;8.650;2022-10-16T00:40:19;99754.88;;;39.29;30.60
63347;BME280;49472;49.880;8.650;2022-10-16T00:42:44;99750.25;;;39.04;30.24
63347;BME280;49472;49.880;8.650;2022-10-16T00:45:10;99745.72;;;39.22;30.37
63347;BME280;49472;49.880;8.650;2022-10-16T00:47:42;99757.13;;;39.45;30.03
63347;BME280;49472;49.880;8.650;2022-10-16T00:50:33;99752.78;;;39.84;29.50
63347;BME280;49472;49.880;8.650;2022-10-16T00:53:00;99749.66;;;39.24;30.16
63347;BME280;49472;49.880;8.650;2022-10-16T00:55:27;99753.56;;;39.84;29.09
63347;BME280;49472;49.880;8.650;2022-10-16T00:57:56;99770.84;;;39.52;29.91
63347;BME280;49472;49.880;8.650;2022-10-16T01:00:24;99774.31;;;38.14;30.95
63347;BME280;49472;49.880;8.650;2022-10-16T01:02:59;99768.19;;;37.77;31.16
63347;BME280;49472;49.880;8.650;2022-10-16T01:05:40;99768.47;;;39.42;29.11
63347;BME280;49472;49.880;8.650;2022-10-16T01:08:13;99770.22;;;39.06;29.82
63347;BME280;49472;49.880;8.650;2022-10-16T01:10:52;99774.44;;;39.39;29.68
63347;BME280;49472;49.880;8.650;2022-10-16T01:13:35;99781.84;;;37.34;31.57
63347;BME280;49472;49.880;8.650;2022-10-16T01:16:12;99779.56;;;38.19;30.79
63347;BME280;49472;49.880;8.650;2022-10-16T01:18:43;99778.63;;;37.87;30.46
63347;BME280;49472;49.880;8.650;2022-10-16T01:21:24;99779.03;;;38.53;30.41
63347;BME280;49472;49.880;8.650;2022-10-16T01:24:03;99772.66;;;38.63;29.89
63347;BME280;49472;49.880;8.650;2022-10-16T01:29:28;99785.63;;;38.47;30.07
63347;BME280;49472;49.880;8.650;2022-10-16T01:32:01;99782.13;;;38.47;29.81
63347;BME280;49472;49.880;8.650;2022-10-16T01:34:35;99783.50;;;40.12;28.54
63347;BME280;49472;49.880;8.650;2022-10-16T01:37:07;99780.63;;;39.74;29.08
63347;BME280;49472;49.880;8.650;2022-10-16T01:39:37;99774.69;;;39.86;28.79
63347;BME280;49472;49.880;8.650;2022-10-16T01:42:11;99770.69;;;40.70;27.79
63347;BME280;49472;49.880;8.650;2022-10-16T01:44:39;99781.59;;;40.56;27.88
63347;BME280;49472;49.880;8.650;2022-10-16T01:47:09;99778.72;;;39.57;28.86
63347;BME280;49472;49.880;8.650;2022-10-16T01:49:37;99788.13;;;38.75;30.45
63347;BME280;49472;49.880;8.650;2022-10-16T01:52:07;99792.75;;;39.54;28.95
63347;BME280;49472;49.880;8.650;2022-10-16T01:54:35;99800.81;;;38.69;30.43
63347;BME280;49472;49.880;8.650;2022-10-16T01:57:03;99797.25;;;39.36;29.60
63347;BME280;49472;49.880;8.650;2022-10-16T01:59:31;99807.16;;;39.36;29.32
63347;BME280;49472;49.880;8.650;2022-10-16T02:02:00;99801.06;;;39.13;29.71
63347;BME280;49472;49.880;8.650;2022-10-16T02:04:27;99805.72;;;37.94;30.90
63347;BME280;49472;49.880;8.650;2022-10-16T02:06:53;99810.59;;;38.74;30.43
63347;BME280;49472;49.880;8.650;2022-10-16T02:09:19;99803.84;;;39.87;28.63
63347;BME280;49472;49.880;8.650;2022-10-16T02:11:45;99799.91;;;40.37;28.15
63347;BME280;49472;49.880;8.650;2022-10-16T02:14:10;99796.66;;;39.48;29.08
63347;BME280;49472;49.880;8.650;2022-10-16T02:16:40;99784.31;;;40.13;28.75
63347;BME280;49472;49.880;8.650;2022-10-16T02:19:07;99790.06;;;39.14;29.46
63347;BME280;49472;49.880;8.650;2022-10-16T02:21:55;99789.38;;;39.00;30.25
63347;BME280;49472;49.880;8.650;2022-10-16T02:24:35;99788.06;;;40.47;28.36
63347;BME280;49472;49.880;8.650;2022-10-16T02:29:34;99792.50;;;39.90;28.77
63347;BME280;49472;49.880;8.650;2022-10-16T02:32:04;99784.72;;;39.54;28.95
63347;BME280;49472;49.880;8.650;2022-10-16T02:34:32;99786.91;;;39.61;29.10
63347;BME280;49472;49.880;8.650;2022-10-16T02:37:00;99785.94;;;39.39;29.51
63347;BME280;49472;49.880;8.650;2022-10-16T02:39:28;99781.56;;;40.65;28.09
63347;BME280;49472;49.880;8.650;2022-10-16T02:41:54;99781.31;;;40.41;28.33
63347;BME280;49472;49.880;8.650;2022-10-16T02:44:19;99778.63;;;40.32;28.49
63347;BME280;49472;49.880;8.650;2022-10-16T02:46:44;99791.22;;;39.88;28.68
63347;BME280;49472;49.880;8.650;2022-10-16T02:49:10;99803.38;;;38.74;30.11
63347;BME280;49472;49.880;8.650;2022-10-16T02:51:35;99808.34;;;38.90;29.65
63347;BME280;49472;49.880;8.650;2022-10-16T02:54:01;99803.91;;;39.16;29.71
63347;BME280;49472;49.880;8.650;2022-10-16T02:56:27;99808.66;;;39.19;29.32
63347;BME280;49472;49.880;8.650;2022-10-16T02:58:52;99804.63;;;40.05;28.89
63347;BME280;49472;49.880;8.650;2022-10-16T03:01:17;99807.56;;;39.78;28.99
63347;BME280;49472;49.880;8.650;2022-10-16T03:03:43;99813.75;;;39.38;29.78
63347;BME280;49472;49.880;8.650;2022-10-16T03:06:08;99820.94;;;37.94;30.95
63347;BME280;49472;49.880;8.650;2022-10-16T03:08:33;99814.22;;;39.80;29.24
63347;BME280;49472;49.880;8.650;2022-10-16T03:10:59;99819.56;;;39.00;30.39
63347;BME280;49472;49.880;8.650;2022-10-16T03:13:24;99821.06;;;39.55;29.31
63347;BME280;49472;49.880;8.650;2022-10-16T03:15:49;99824.91;;;39.32;29.97
63347;BME280;49472;49.880;8.650;2022-10-16T03:18:15;99825.91;;;38.59;30.56
63347;BME280;49472;49.880;8.650;2022-10-16T03:20:42;99818.16;;;39.03;30.17
63347;BME280;49472;49.880;8.650;2022-10-16T03:23:07;99816.69;;;38.65;30.38
63347;BME280;49472;49.880;8.650;2022-10-16T03:25:33;99814.53;;;37.81;31.37
63347;BME280;49472;49.880;8.650;2022-10-16T03:27:58;99821.31;;;38.51;30.69
63347;BME280;49472;49.880;8.650;2022-10-16T03:30:24;99816.28;;;37.86;31.12
63347;BME280;49472;49.880;8.650;2022-10-16T03:32:49;99825.63;;;37.61;32.22
63347;BME280;49472;49.880;8.650;2022-10-16T03:35:19;99821.81;;;38.39;30.93
63347;BME280;49472;49.880;8.650;2022-10-16T03:37:44;99823.78;;;39.24;29.88
63347;BME280;49472;49.880;8.650;2022-10-16T03:40:09;99821.13;;;39.33;29.76
63347;BME280;49472;49.880;8.650;2022-10-16T03:42:35;99831.56;;;39.43;29.46
63347;BME280;49472;49.880;8.650;2022-10-16T03:45:00;99822.59;;;40.13;28.71
63347;BME280;49472;49.880;8.650;2022-10-16T03:47:25;99844.38;;;38.92;30.46
63347;BME280;49472;49.880;8.650;2022-10-16T03:49:51;99834.63;;;39.27;30.20
63347;BME280;49472;49.880;8.650;2022-10-16T03:52:16;99846.53;;;39.44;29.60
63347;BME280;49472;49.880;8.650;2022-10-16T03:54:42;99843.28;;;38.93;30.22
63347;BME280;49472;49.880;8.650;2022-10-16T03:57:07;99841.41;;;38.71;30.63
63347;BME280;49472;49.880;8.650;2022-10-16T03:59:32;99839.75;;;39.95;29.24
63347;BME280;49472;49.880;8.650;2022-10-16T04:01:58;99846.31;;;39.32;29.65
63347;BME280;49472;49.880;8.650;2022-10-16T04:04:23;99853.78;;;38.90;30.67
63347;BME280;49472;49.880;8.650;2022-10-16T04:06:50;99853.53;;;39.31;29.96
63347;BME280;49472;49.880;8.650;2022-10-16T04:09:15;99835.50;;;39.45;29.57
63347;BME280;49472;49.880;8.650;2022-10-16T04:11:40;99825.44;;;39.51;29.64
63347;BME280;49472;49.880;8.650;2022-10-16T04:14:06;99830.31;;;39.40;29.58
63347;BME280;49472;49.880;8.650;2022-10-16T04:16:31;99832.69;;;40.34;28.67
63347;BME280;49472;49.880;8.650;2022-10-16T04:18:56;99840.03;;;38.82;30.32
63347;BME280;49472;49.880;8.650;2022-10-16T04:21:21;99833.91;;;39.04;30.34
63347;BME280;49472;49.880;8.650;2022-10-16T04:23:47;99837.03;;;40.91;28.14
63347;BME280;49472;49.880;8.650;2022-10-16T04:26:13;99843.63;;;37.69;32.14
63347;BME280;49472;49.880;8.650;2022-10-16T04:28:38;99852.19;;;38.89;30.76
63347;BME280;49472;49.880;8.650;2022-10-16T04:31:04;99851.66;;;38.55;30.97
63347;BME280;49472;49.880;8.650;2022-10-16T04:33:30;99852.72;;;39.30;30.09
63347;BME280;49472;49.880;8.650;2022-10-16T04:35:59;99849.13;;;39.26;30.25
63347;BME280;49472;49.880;8.650;2022-10-16T04:38:25;99837.56;;;40.32;28.76
63347;BME280;49472;49.880;8.650;2022-10-16T04:40:51;99830.50;;;40.36;28.69
63347;BME280;49472;49.880;8.650;2022-10-16T04:43:17;99836.25;;;39.94;29.19
63347;BME280;49472;49.880;8.650;2022-10-16T04:45:42;99847.19;;;40.33;28.70
63347;BME280;49472;49.880;8.650;2022-10-16T04:48:08;99852.97;;;39.43;29.40
63347;BME280;49472;49.880;8.650;2022-10-16T04:50:33;99840.72;;;40.34;28.57
63347;BME280;49472;49.880;8.650;2022-10-16T04:52:58;99845.75;;;40.44;28.36
63347;BME280;49472;49.880;8.650;2022-10-16T04:55:24;99844.84;;;39.65;29.10
63347;BME280;49472;49.880;8.650;2022-10-16T04:57:49;99842.78;;;40.46;28.40
63347;BME280;49472;49.880;8.650;2022-10-16T05:00:15;99843.97;;;40.83;27.93
63347;BME280;49472;49.880;8.650;2022-10-16T05:02:40;99850.00;;;40.45;28.74
63347;BME280;49472;49.880;8.650;2022-10-16T05:05:06;99846.34;;;40.76;28.27
63347;BME280;49472;49.880;8.650;2022-10-16T05:07:32;99848.03;;;40.98;27.78
63347;BME280;49472;49.880;8.650;2022-10-16T05:09:57;99844.38;;;41.20;27.59
63347;BME280;49472;49.880;8.650;2022-10-16T05:12:22;99844.94;;;40.78;28.01
63347;BME280;49472;49.880;8.650;2022-10-16T05:14:48;99838.53;;;40.36;28.54
63347;BME280;49472;49.880;8.650;2022-10-16T05:17:13;99838.97;;;40.47;28.35
63347;BME280;49472;49.880;8.650;2022-10-16T05:19:39;99842.59;;;40.60;27.76
63347;BME280;49472;49.880;8.650;2022-10-16T05:22:04;99856.94;;;40.72;28.16
63347;BME280;49472;49.880;8.650;2022-10-16T05:24:30;99853.47;;;40.72;28.03
63347;BME280;49472;49.880;8.650;2022-10-16T05:26:55;99852.88;;;40.66;27.94
63347;BME280;49472;49.880;8.650;2022-10-16T05:29:20;99856.94;;;40.38;28.59
63347;BME280;49472;49.880;8.650;2022-10-16T05:31:46;99862.47;;;40.41;28.25
63347;BME280;49472;49.880;8.650;2022-10-16T05:34:11;99859.91;;;40.01;29.03
63347;BME280;49472;49.880;8.650;2022-10-16T05:36:36;99850.28;;;40.18;28.27
63347;BME280;49472;49.880;8.650;2022-10-16T05:39:02;99848.59;;;40.74;27.84
63347;BME280;49472;49.880;8.650;2022-10-16T05:41:28;99846.41;;;40.41;28.01
63347;BME280;49472;49.880;8.650;2022-10-16T05:43:53;99855.06;;;40.38;28.33
63347;BME280;49472;49.880;8.650;2022-10-16T05:46:18;99857.41;;;40.57;28.18
63347;BME280;49472;49.880;8.650;2022-10-16T05:48:44;99861.34;;;40.77;27.74
63347;BME280;49472;49.880;8.650;2022-10-16T05:51:11;99855.81;;;40.82;27.90
63347;BME280;49472;49.880;8.650;2022-10-16T05:53:39;99856.75;;;40.86;27.80
63347;BME280;49472;49.880;8.650;2022-10-16T05:56:05;99868.91;;;40.40;28.30
63347;BME280;49472;49.880;8.650;2022-10-16T05:58:33;99882.88;;;40.02;29.02
63347;BME280;49472;49.880;8.650;2022-10-16T06:01:03;99885.59;;;40.11;28.74
63347;BME280;49472;49.880;8.650;2022-10-16T06:03:29;99892.44;;;39.06;29.69
63347;BME280;49472;49.880;8.650;2022-10-16T06:05:54;99905.72;;;40.00;29.03
63347;BME280;49472;49.880;8.650;2022-10-16T06:08:21;99895.09;;;40.26;28.77
63347;BME280;49472;49.880;8.650;2022-10-16T06:10:47;99898.84;;;40.16;28.55
63347;BME280;49472;49.880;8.650;2022-10-16T06:13:13;99899.34;;;40.53;28.17
63347;BME280;49472;49.880;8.650;2022-10-16T06:15:40;99898.38;;;40.92;27.91
63347;BME280;49472;49.880;8.650;2022-10-16T06:18:09;99906.28;;;40.45;27.97
63347;BME280;49472;49.880;8.650;2022-10-16T06:20:35;99901.25;;;40.61;27.95
63347;BME280;49472;49.880;8.650;2022-10-16T06:23:00;99901.22;;;40.87;27.85
63347;BME280;49472;49.880;8.650;2022-10-16T06:25:26;99900.75;;;40.85;27.94
63347;BME280;49472;49.880;8.650;2022-10-16T06:27:51;99897.28;;;40.93;27.58
63347;BME280;49472;49.880;8.650;2022-10-16T06:30:16;99905.13;;;41.07;27.48
63347;BME280;49472;49.880;8.650;2022-10-16T06:32:42;99902.31;;;41.12;27.54
63347;BME280;49472;49.880;8.650;2022-10-16T06:35:07;99907.56;;;40.74;28.10
63347;BME280;49472;49.880;8.650;2022-10-16T06:37:32;99917.66;;;40.51;28.38
63347;BME280;49472;49.880;8.650;2022-10-16T06:39:58;99915.88;;;40.20;28.38
63347;BME280;49472;49.880;8.650;2022-10-16T06:42:23;99907.53;;;40.65;28.04
63347;BME280;49472;49.880;8.650;2022-10-16T06:44:48;99912.59;;;40.49;28.08
63347;BME280;49472;49.880;8.650;2022-10-16T06:47:14;99925.66;;;40.25;28.35
63347;BME280;49472;49.880;8.650;2022-10-16T06:49:39;99910.38;;;40.86;27.77
63347;BME280;49472;49.880;8.650;2022-10-16T06:52:04;99920.16;;;40.73;28.01
63347;BME280;49472;49.880;8.650;2022-10-16T06:54:30;99936.69;;;40.32;28.39
63347;BME280;49472;49.880;8.650;2022-10-16T06:56:55;99932.78;;;40.47;28.23
63347;BME280;49472;49.880;8.650;2022-10-16T06:59:21;99931.56;;;40.04;28.74
63347;BME280;49472;49.880;8.650;2022-10-16T07:01:46;99930.41;;;40.89;27.93
63347;BME280;49472;49.880;8.650;2022-10-16T07:04:12;99928.81;;;40.27;28.46
63347;BME280;49472;49.880;8.650;2022-10-16T07:06:37;99937.19;;;40.34;28.30
63347;BME280;49472;49.880;8.650;2022-10-16T07:09:05;99936.72;;;40.49;28.39
63347;BME280;49472;49.880;8.650;2022-10-16T07:11:31;99935.47;;;39.81;28.80
63347;BME280;49472;49.880;8.650;2022-10-16T07:13:57;99940.31;;;39.79;28.70
63347;BME280;49472;49.880;8.650;2022-10-16T07:16:27;99943.94;;;39.20;29.41
63347;BME280;49472;49.880;8.650;2022-10-16T07:18:57;99948.47;;;39.34;29.94
63347;BME280;49472;49.880;8.650;2022-10-16T07:21:23;99957.13;;;39.17;29.96
63347;BME280;49472;49.880;8.650;2022-10-16T07:23:55;99963.19;;;39.85;29.39
63347;BME280;49472;49.880;8.650;2022-10-16T07:26:21;99969.19;;;39.90;29.14
63347;BME280;49472;49.880;8.650;2022-10-16T07:28:47;99981.34;;;37.51;31.19
63347;BME280;49472;49.880;8.650;2022-10-16T07:31:17;99986.25;;;39.18;29.87
63347;BME280;49472;49.880;8.650;2022-10-16T07:33:43;99980.66;;;39.06;29.74
63347;BME280;49472;49.880;8.650;2022-10-16T07:36:09;99980.31;;;38.85;29.96
63347;BME280;49472;49.880;8.650;2022-10-16T07:38:35;99979.47;;;38.62;30.63
63347;BME280;49472;49.880;8.650;2022-10-16T07:41:02;99981.75;;;39.05;29.83
63347;BME280;49472;49.880;8.650;2022-10-16T07:43:28;99986.44;;;38.63;30.53
63347;BME280;49472;49.880;8.650;2022-10-16T07:45:54;99988.25;;;39.13;29.60
63347;BME280;49472;49.880;8.650;2022-10-16T07:48:20;99987.72;;;39.24;30.11
63347;BME280;49472;49.880;8.650;2022-10-16T07:50:46;99989.50;;;39.91;29.21
63347;BME280;49472;49.880;8.650;2022-10-16T07:53:11;99993.84;;;39.47;29.72
63347;BME280;49472;49.880;8.650;2022-10-16T07:55:37;99994.91;;;40.84;28.15
63347;BME280;49472;49.880;8.650;2022-10-16T07:58:03;99988.59;;;40.62;28.44
63347;BME280;49472;49.880;8.650;2022-10-16T08:00:29;99995.00;;;40.35;28.54
63347;BME280;49472;49.880;8.650;2022-10-16T08:02:56;99997.88;;;40.39;28.44
63347;BME280;49472;49.880;8.650;2022-10-16T08:05:29;99998.47;;;39.56;29.42
63347;BME280;49472;49.880;8.650;2022-10-16T08:07:54;100005.81;;;39.05;30.42
63347;BME280;49472;49.880;8.650;2022-10-16T08:10:22;100004.84;;;39.46;30.17
63347;BME280;49472;49.880;8.650;2022-10-16T08:12:48;100013.69;;;40.18;28.63
63347;BME280;49472;49.880;8.650;2022-10-16T08:15:13;100023.78;;;39.49;30.02
63347;BME280;49472;49.880;8.650;2022-10-16T08:17:38;100028.38;;;38.21;30.90
63347;BME280;49472;49.880;8.650;2022-10-16T08:20:04;100034.91;;;39.43;29.63
63347;BME280;49472;49.880;8.650;2022-10-16T08:22:29;100033.44;;;39.37;30.34
63347;BME280;49472;49.880;8.650;2022-10-16T08:24:55;100043.59;;;39.48;29.53
63347;BME280;49472;49.880;8.650;2022-10-16T08:27:20;100043.81;;;39.83;29.49
63347;BME280;49472;49.880;8.650;2022-10-16T08:29:45;100056.03;;;37.84;32.13
63347;BME280;49472;49.880;8.650;2022-10-16T08:32:11;100063.38;;;38.75;31.37
63347;BME280;49472;49.880;8.650;2022-10-16T08:34:36;100068.28;;;38.59;31.02
63347;BME280;49472;49.880;8.650;2022-10-16T08:37:02;100089.81;;;37.88;32.72
63347;BME280;49472;49.880;8.650;2022-10-16T08:39:27;100092.56;;;43.06;46.65
63347;BME280;49472;49.880;8.650;2022-10-16T08:42:05;100082.38;;;43.11;28.71
63347;BME280;49472;49.880;8.650;2022-10-16T08:44:53;100101.88;;;41.03;34.06
63347;BME280;49472;49.880;8.650;2022-10-16T08:50:10;100089.44;;;41.33;29.55
63347;BME280;49472;49.880;8.650;2022-10-16T08:52:40;100088.16;;;40.95;29.47
63347;BME280;49472;49.880;8.650;2022-10-16T08:55:08;100084.81;;;40.81;29.84
63347;BME280;49472;49.880;8.650;2022-10-16T08:57:41;100088.16;;;40.95;29.93
63347;BME280;49472;49.880;8.650;2022-10-16T09:00:13;100080.13;;;41.39;29.56
63347;BME280;49472;49.880;8.650;2022-10-16T09:02:43;100092.44;;;41.40;28.64
63347;BME280;49472;49.880;8.650;2022-10-16T09:05:24;100091.94;;;42.20;28.17
63347;BME280;49472;49.880;8.650;2022-10-16T09:18:38;100117.44;;;43.24;26.84
63347;BME280;49472;49.880;8.650;2022-10-16T09:21:19;100129.31;;;42.04;28.00
63347;BME280;49472;49.880;8.650;2022-10-16T09:23:47;100128.88;;;43.21;27.00
63347;BME280;49472;49.880;8.650;2022-10-16T09:26:13;100144.31;;;42.14;27.81
63347;BME280;49472;49.880;8.650;2022-10-16T09:28:40;100143.41;;;41.14;28.87
63347;BME280;49472;49.880;8.650;2022-10-16T09:31:05;100142.47;;;41.10;28.98
63347;BME280;49472;49.880;8.650;2022-10-16T09:33:35;100132.00;;;43.44;26.57
63347;BME280;49472;49.880;8.650;2022-10-16T09:36:03;100126.56;;;43.10;27.47
63347;BME280;49472;49.880;8.650;2022-10-16T09:38:32;100132.56;;;43.07;27.04
63347;BME280;49472;49.880;8.650;2022-10-16T09:41:00;100134.88;;;42.67;27.52
63347;BME280;49472;49.880;8.650;2022-10-16T09:43:31;100138.31;;;43.06;27.36
63347;BME280;49472;49.880;8.650;2022-10-16T09:46:02;100138.88;;;42.61;27.58
63347;BME280;49472;49.880;8.650;2022-10-16T09:48:37;100140.13;;;43.35;27.32
63347;BME280;49472;49.880;8.650;2022-10-16T09:51:13;100147.41;;;42.24;28.21
63347;BME280;49472;49.880;8.650;2022-10-16T09:53:43;100150.03;;;43.01;27.58
63347;BME280;49472;49.880;8.650;2022-10-16T09:56:11;100147.38;;;44.10;26.64
63347;BME280;49472;49.880;8.650;2022-10-16T09:58:42;100146.69;;;44.25;26.96
63347;BME280;49472;49.880;8.650;2022-10-16T10:01:14;100156.13;;;43.19;27.54
63347;BME280;49472;49.880;8.650;2022-10-16T10:03:42;100147.25;;;42.59;28.58
63347;BME280;49472;49.880;8.650;2022-10-16T10:06:18;100151.78;;;41.47;29.43
63347;BME280;49472;49.880;8.650;2022-10-16T10:09:26;100159.84;;;41.38;29.65
63347;BME280;49472;49.880;8.650;2022-10-16T10:11:54;100156.50;;;43.84;27.01
63347;BME280;49472;49.880;8.650;2022-10-16T10:14:37;100166.63;;;41.18;29.27
63347;BME280;49472;49.880;8.650;2022-10-16T10:19:37;100167.31;;;42.70;28.07
63347;BME280;49472;49.880;8.650;2022-10-16T10:25:07;100178.19;;;43.04;27.09
63347;BME280;49472;49.880;8.650;2022-10-16T10:28:01;100160.63;;;42.77;27.84
63347;BME280;49472;49.880;8.650;2022-10-16T11:00:10;100150.16;;;44.75;25.86
63347;BME280;49472;49.880;8.650;2022-10-16T11:02:55;100153.28;;;43.37;26.95
63347;BME280;49472;49.880;8.650;2022-10-16T11:05:33;100149.53;;;45.18;25.53
63347;BME280;49472;49.880;8.650;2022-10-16T11:08:15;100142.75;;;44.96;26.25
63347;BME280;49472;49.880;8.650;2022-10-16T11:13:21;100147.63;;;44.78;25.60
63347;BME280;49472;49.880;8.650;2022-10-16T11:15:52;100142.00;;;44.83;25.92
63347;BME280;49472;49.880;8.650;2022-10-16T11:18:22;100146.94;;;44.20;26.28
63347;BME280;49472;49.880;8.650;2022-10-16T11:20:56;100146.53;;;43.97;26.31
63347;BME280;49472;49.880;8.650;2022-10-16T11:23:29;100150.81;;;46.09;25.29
63347;BME280;49472;49.880;8.650;2022-10-16T11:26:00;100155.03;;;46.58;24.72
63347;BME280;49472;49.880;8.650;2022-10-16T11:28:32;100148.97;;;46.29;24.70
63347;BME280;49472;49.880;8.650;2022-10-16T11:31:32;100151.16;;;48.44;23.06
63347;BME280;49472;49.880;8.650;2022-10-16T11:34:29;100164.75;;;47.52;23.29
63347;BME280;49472;49.880;8.650;2022-10-16T11:37:04;100162.78;;;46.94;23.77
63347;BME280;49472;49.880;8.650;2022-10-16T11:39:30;100163.38;;;47.42;24.10
63347;BME280;49472;49.880;8.650;2022-10-16T11:42:03;100161.28;;;49.38;22.45
63347;BME280;49472;49.880;8.650;2022-10-16T11:47:14;100159.75;;;46.96;23.63
63347;BME280;49472;49.880;8.650;2022-10-16T11:49:45;100155.13;;;47.78;23.01
63347;BME280;49472;49.880;8.650;2022-10-16T11:52:39;100157.31;;;47.69;22.95
63347;BME280;49472;49.880;8.650;2022-10-16T11:55:18;100143.09;;;48.48;22.50
63347;BME280;49472;49.880;8.650;2022-10-16T11:57:57;100142.03;;;49.17;21.52
63347;BME280;49472;49.880;8.650;2022-10-16T12:00:28;100136.84;;;51.08;20.36
63347;BME280;49472;49.880;8.650;2022-10-16T12:03:08;100142.16;;;50.72;21.13
63347;BME280;49472;49.880;8.650;2022-10-16T12:08:13;100131.50;;;50.45;20.44
63347;BME280;49472;49.880;8.650;2022-10-16T12:10:41;100124.34;;;50.92;20.37
63347;BME280;49472;49.880;8.650;2022-10-16T12:13:30;100146.94;;;48.47;21.62
63347;BME280;49472;49.880;8.650;2022-10-16T12:18:38;100143.56;;;47.81;22.29
63347;BME280;49472;49.880;8.650;2022-10-16T12:21:03;100146.84;;;46.38;23.28
63347;BME280;49472;49.880;8.650;2022-10-16T12:23:30;100140.78;;;46.61;22.84
63347;BME280;49472;49.880;8.650;2022-10-16T12:26:00;100135.22;;;49.67;21.79
63347;BME280;49472;49.880;8.650;2022-10-16T12:28:32;100128.75;;;52.08;19.35
63347;BME280;49472;49.880;8.650;2022-10-16T12:31:00;100133.22;;;50.75;20.74
63347;BME280;49472;49.880;8.650;2022-10-16T12:34:02;100133.81;;;51.88;19.86
63347;BME280;49472;49.880;8.650;2022-10-16T12:36:30;100137.47;;;50.10;21.38
63347;BME280;49472;49.880;8.650;2022-10-16T12:38:56;100148.94;;;49.10;21.21
63347;BME280;49472;49.880;8.650;2022-10-16T12:41:33;100148.91;;;49.41;21.07
63347;BME280;49472;49.880;8.650;2022-10-16T12:44:00;100158.19;;;50.98;20.42
63347;BME280;49472;49.880;8.650;2022-10-16T12:49:06;100155.28;;;48.58;21.50
63347;BME280;49472;49.880;8.650;2022-10-16T12:54:12;100160.53;;;47.97;22.35
63347;BME280;49472;49.880;8.650;2022-10-16T13:18:13;100165.53;;;48.45;21.21
63347;BME280;49472;49.880;8.650;2022-10-16T13:23:38;100176.63;;;47.67;22.80
63347;BME280;49472;49.880;8.650;2022-10-16T13:29:15;100164.25;;;47.27;22.83
63347;BME280;49472;49.880;8.650;2022-10-16T13:31:42;100168.22;;;47.53;23.10
63347;BME280;49472;49.880;8.650;2022-10-16T13:34:13;100164.94;;;47.63;23.21
63347;BME280;49472;49.880;8.650;2022-10-16T13:36:47;100166.06;;;47.42;22.98
63347;BME280;49472;49.880;8.650;2022-10-16T13:41:40;100157.91;;;47.39;23.24
63347;BME280;49472;49.880;8.650;2022-10-16T13:44:14;100170.25;;;47.56;22.70
63347;BME280;49472;49.880;8.650;2022-10-16T13:46:40;100172.00;;;46.90;23.17
63347;BME280;49472;49.880;8.650;2022-10-16T13:49:16;100165.88;;;47.94;22.58
63347;BME280;49472;49.880;8.650;2022-10-16T13:51:53;100166.00;;;46.81;23.16
63347;BME280;49472;49.880;8.650;2022-10-16T13:54:19;100170.28;;;46.66;23.67
63347;BME280;49472;49.880;8.650;2022-10-16T13:56:44;100168.78;;;46.68;23.00
63347;BME280;49472;49.880;8.650;2022-10-16T13:59:27;100162.38;;;46.92;23.54
63347;BME280;49472;49.880;8.650;2022-10-16T14:01:58;100163.50;;;46.72;23.77
63347;BME280;49472;49.880;8.650;2022-10-16T14:04:32;100165.50;;;46.75;23.83
63347;BME280;49472;49.880;8.650;2022-10-16T14:06:58;100166.06;;;46.84;23.29
63347;BME280;49472;49.880;8.650;2022-10-16T14:09:28;100162.78;;;46.94;23.79
63347;BME280;49472;49.880;8.650;2022-10-16T14:12:01;100159.81;;;46.80;23.46
63347;BME280;49472;49.880;8.650;2022-10-16T14:14:42;100158.34;;;47.22;23.10
63347;BME280;49472;49.880;8.650;2022-10-16T14:17:29;100162.69;;;47.26;23.01
63347;BME280;49472;49.880;8.650;2022-10-16T14:19:58;100166.75;;;47.36;23.15
63347;BME280;49472;49.880;8.650;2022-10-16T14:24:59;100157.19;;;47.42;23.06
63347;BME280;49472;49.880;8.650;2022-10-16T14:27:35;100150.56;;;47.59;22.79
63347;BME280;49472;49.880;8.650;2022-10-16T14:32:41;100149.00;;;47.38;23.02
63347;BME280;49472;49.880;8.650;2022-10-16T14:35:25;100143.16;;;47.79;23.11
63347;BME280;49472;49.880;8.650;2022-10-16T14:37:53;100149.25;;;47.53;23.24
63347;BME280;49472;49.880;8.650;2022-10-16T14:40:21;100149.72;;;47.16;23.53
63347;BME280;49472;49.880;8.650;2022-10-16T14:42:48;100150.34;;;47.29;23.23
63347;BME280;49472;49.880;8.650;2022-10-16T14:45:18;100165.13;;;47.51;23.09
63347;BME280;49472;49.880;8.650;2022-10-16T14:47:53;100154.06;;;47.21;23.28
63347;BME280;49472;49.880;8.650;2022-10-16T14:50:19;100154.84;;;47.21;23.42